createdAt,value
2022-10-24T00:00:45.000Z,286.59
2022-10-24T00:02:12.000Z,286.52
2022-10-24T00:04:18.000Z,286.52
2022-10-24T00:05:45.000Z,286.59
2022-10-24T00:07:51.000Z,286.52
2022-10-24T00:09:17.000Z,286.52
2022-10-24T00:11:23.000Z,286.59
2022-10-24T00:12:50.000Z,286.59
2022-10-24T00:14:56.000Z,286.59
2022-10-24T00:17:47.000Z,286.52
2022-10-24T00:19:14.000Z,286.65
2022-10-24T00:21:20.000Z,286.59
2022-10-24T00:22:46.000Z,286.59
2022-10-24T00:24:52.000Z,286.59
2022-10-24T00:26:19.000Z,286.59
2022-10-24T00:28:25.000Z,286.59
2022-10-24T00:29:51.000Z,286.52
2022-10-24T00:31:58.000Z,286.52
2022-10-24T00:33:24.000Z,286.59
2022-10-24T00:35:30.000Z,286.59
2022-10-24T00:36:57.000Z,286.52
2022-10-24T00:39:03.000Z,286.52
2022-10-24T00:40:29.000Z,286.52
2022-10-24T00:42:35.000Z,286.65
2022-10-24T00:44:02.000Z,286.59
2022-10-24T00:46:08.000Z,286.59
2022-10-24T00:47:34.000Z,286.52
2022-10-24T00:49:41.000Z,286.46
2022-10-24T00:51:07.000Z,286.46
2022-10-24T00:53:13.000Z,286.52
2022-10-24T00:56:04.000Z,286.52
2022-10-24T00:57:31.000Z,286.52
2022-10-24T00:59:37.000Z,286.46
2022-10-24T01:01:03.000Z,286.46
2022-10-24T01:03:10.000Z,286.46
2022-10-24T01:04:36.000Z,286.46
2022-10-24T01:06:43.000Z,286.4
2022-10-24T01:08:09.000Z,286.4
2022-10-24T01:10:15.000Z,286.27
2022-10-24T01:11:42.000Z,286.27
2022-10-24T01:13:48.000Z,286.21
2022-10-24T01:15:14.000Z,286.27
2022-10-24T01:17:20.000Z,286.34
2022-10-24T01:18:47.000Z,286.34
2022-10-24T01:20:53.000Z,286.34
2022-10-24T01:22:20.000Z,286.27
2022-10-24T01:24:26.000Z,286.27
2022-10-24T01:25:52.000Z,286.34
2022-10-24T01:27:58.000Z,286.27
2022-10-24T01:29:25.000Z,286.34
2022-10-24T01:31:31.000Z,286.27
2022-10-24T01:34:22.000Z,286.27
2022-10-24T01:35:49.000Z,286.21
2022-10-24T01:37:55.000Z,286.27
2022-10-24T01:39:21.000Z,286.27
2022-10-24T01:41:28.000Z,286.21
2022-10-24T01:42:54.000Z,286.15
2022-10-24T01:45:00.000Z,286.15
2022-10-24T01:46:27.000Z,286.15
2022-10-24T01:48:33.000Z,286.15
2022-10-24T01:49:59.000Z,286.21
2022-10-24T01:52:05.000Z,286.15
2022-10-24T01:53:32.000Z,286.15
2022-10-24T01:55:38.000Z,286.15
2022-10-24T01:57:05.000Z,286.15
2022-10-24T01:59:11.000Z,286.09
2022-10-24T02:00:37.000Z,286.15
2022-10-24T02:02:44.000Z,286.09
2022-10-24T02:04:11.000Z,286.15
2022-10-24T02:06:17.000Z,286.09
2022-10-24T02:07:43.000Z,286.09
2022-10-24T02:09:49.000Z,286.09
2022-10-24T02:12:41.000Z,286.09
2022-10-24T02:14:08.000Z,286.09
2022-10-24T02:16:14.000Z,286.09
2022-10-24T02:17:40.000Z,286.02
2022-10-24T02:19:47.000Z,286.02
2022-10-24T02:21:13.000Z,285.96
2022-10-24T02:23:20.000Z,285.96
2022-10-24T02:24:46.000Z,285.96
2022-10-24T02:26:52.000Z,285.96
2022-10-24T02:28:19.000Z,285.96
2022-10-24T02:30:25.000Z,285.96
2022-10-24T02:31:51.000Z,285.96
2022-10-24T02:33:58.000Z,285.9
2022-10-24T02:35:24.000Z,285.9
2022-10-24T02:37:30.000Z,285.9
2022-10-24T02:38:57.000Z,285.9
2022-10-24T02:41:03.000Z,285.84
2022-10-24T02:42:29.000Z,285.84
2022-10-24T02:44:36.000Z,285.84
2022-10-24T02:46:02.000Z,285.84
2022-10-24T02:48:08.000Z,285.9
2022-10-24T02:51:00.000Z,285.9
2022-10-24T02:52:26.000Z,285.84
2022-10-24T02:54:32.000Z,285.84
2022-10-24T02:55:59.000Z,285.9
2022-10-24T02:58:05.000Z,285.9
2022-10-24T02:59:32.000Z,285.84
2022-10-24T03:01:38.000Z,285.9
2022-10-24T03:03:04.000Z,285.9
2022-10-24T03:05:10.000Z,285.96
2022-10-24T03:06:37.000Z,285.96
2022-10-24T03:08:43.000Z,286.02
2022-10-24T03:10:09.000Z,286.02
2022-10-24T03:12:16.000Z,285.96
2022-10-24T03:13:42.000Z,286.02
2022-10-24T03:15:48.000Z,285.96
2022-10-24T03:17:15.000Z,285.96
2022-10-24T03:19:21.000Z,286.02
2022-10-24T03:20:48.000Z,285.96
2022-10-24T03:22:54.000Z,285.96
2022-10-24T03:24:20.000Z,285.96
2022-10-24T03:26:47.000Z,285.96
2022-10-24T03:29:38.000Z,285.9
2022-10-24T03:31:05.000Z,285.9
2022-10-24T03:33:11.000Z,285.84
2022-10-24T03:34:38.000Z,285.84
2022-10-24T03:36:44.000Z,285.77
2022-10-24T03:38:10.000Z,285.77
2022-10-24T03:40:16.000Z,285.71
2022-10-24T03:41:43.000Z,285.77
2022-10-24T03:43:49.000Z,285.71
2022-10-24T03:45:15.000Z,285.65
2022-10-24T03:47:21.000Z,285.65
2022-10-24T03:48:48.000Z,285.65
2022-10-24T03:50:54.000Z,285.59
2022-10-24T03:52:21.000Z,285.59
2022-10-24T03:54:27.000Z,285.52
2022-10-24T03:55:53.000Z,285.46
2022-10-24T03:57:59.000Z,285.46
2022-10-24T03:59:26.000Z,285.46
2022-10-24T04:01:32.000Z,285.4
2022-10-24T04:02:59.000Z,285.4
2022-10-24T04:05:05.000Z,285.34
2022-10-24T04:07:56.000Z,285.34
2022-10-24T04:09:23.000Z,285.27
2022-10-24T04:11:29.000Z,285.21
2022-10-24T04:12:55.000Z,285.21
2022-10-24T04:15:01.000Z,285.15
2022-10-24T04:16:29.000Z,285.15
2022-10-24T04:18:35.000Z,285.15
2022-10-24T04:20:02.000Z,285.21
2022-10-24T04:22:08.000Z,285.21
2022-10-24T04:23:35.000Z,285.15
2022-10-24T04:25:41.000Z,285.21
2022-10-24T04:27:07.000Z,285.15
2022-10-24T04:29:13.000Z,285.15
2022-10-24T04:32:47.000Z,285.21
2022-10-24T04:34:13.000Z,285.27
2022-10-24T04:36:20.000Z,285.27
2022-10-24T04:37:46.000Z,285.21
2022-10-24T04:39:52.000Z,285.27
2022-10-24T04:41:19.000Z,285.27
2022-10-24T04:43:25.000Z,285.34
2022-10-24T04:46:16.000Z,285.4
2022-10-24T04:47:42.000Z,285.34
2022-10-24T04:49:49.000Z,285.27
2022-10-24T04:51:15.000Z,285.27
2022-10-24T04:53:26.000Z,285.21
2022-10-24T04:54:53.000Z,285.21
2022-10-24T04:56:59.000Z,285.21
2022-10-24T04:58:25.000Z,285.21
2022-10-24T05:00:31.000Z,285.21
2022-10-24T05:01:58.000Z,285.27
2022-10-24T05:04:04.000Z,285.27
2022-10-24T05:05:30.000Z,285.27
2022-10-24T05:07:36.000Z,285.34
2022-10-24T05:09:03.000Z,285.4
2022-10-24T05:11:09.000Z,285.4
2022-10-24T05:12:36.000Z,285.52
2022-10-24T05:14:42.000Z,285.52
2022-10-24T05:16:08.000Z,285.65
2022-10-24T05:18:14.000Z,285.65
2022-10-24T05:19:41.000Z,285.71
2022-10-24T05:21:47.000Z,285.77
2022-10-24T05:24:38.000Z,285.77
2022-10-24T05:26:05.000Z,285.77
2022-10-24T05:28:11.000Z,285.84
2022-10-24T05:29:37.000Z,285.9
2022-10-24T05:31:43.000Z,285.96
2022-10-24T05:33:10.000Z,285.84
2022-10-24T05:35:16.000Z,285.9
2022-10-24T05:36:42.000Z,285.84
2022-10-24T05:38:48.000Z,285.77
2022-10-24T05:40:15.000Z,285.77
2022-10-24T05:42:21.000Z,285.71
2022-10-24T05:43:47.000Z,285.71
2022-10-24T05:45:53.000Z,285.65
2022-10-24T05:47:20.000Z,285.59
2022-10-24T05:49:30.000Z,285.52
2022-10-24T05:50:57.000Z,285.4
2022-10-24T05:53:03.000Z,285.4
2022-10-24T05:54:29.000Z,285.34
2022-10-24T05:56:59.000Z,285.34
2022-10-24T05:58:26.000Z,285.34
2022-10-24T06:00:32.000Z,285.34
2022-10-24T06:03:22.000Z,285.34
2022-10-24T06:04:49.000Z,285.34
2022-10-24T06:06:55.000Z,285.34
2022-10-24T06:08:22.000Z,285.4
2022-10-24T06:10:28.000Z,285.34
2022-10-24T06:11:54.000Z,285.34
2022-10-24T06:14:00.000Z,285.4
2022-10-24T06:15:27.000Z,285.4
2022-10-24T06:17:33.000Z,285.4
2022-10-24T06:18:59.000Z,285.34
2022-10-24T06:21:05.000Z,285.4
2022-10-24T06:22:32.000Z,285.4
2022-10-24T06:24:38.000Z,285.34
2022-10-24T06:26:05.000Z,285.34
2022-10-24T06:28:11.000Z,285.27
2022-10-24T06:29:37.000Z,285.27
2022-10-24T06:31:43.000Z,285.21
2022-10-24T06:33:10.000Z,285.21
2022-10-24T06:35:16.000Z,285.21
2022-10-24T06:36:42.000Z,285.15
2022-10-24T06:38:48.000Z,285.15
2022-10-24T06:41:40.000Z,285.09
2022-10-24T06:43:06.000Z,285.09
2022-10-24T06:45:12.000Z,285.09
2022-10-24T06:46:39.000Z,285.09
2022-10-24T06:48:45.000Z,285.09
2022-10-24T06:50:11.000Z,285.09
2022-10-24T06:52:17.000Z,285.09
2022-10-24T06:53:44.000Z,285.09
2022-10-24T06:55:50.000Z,285.09
2022-10-24T06:57:17.000Z,285.15
2022-10-24T06:59:23.000Z,285.21
2022-10-24T07:00:49.000Z,285.21
2022-10-24T07:02:55.000Z,285.27
2022-10-24T07:04:22.000Z,285.27
2022-10-24T07:06:28.000Z,285.27
2022-10-24T07:07:55.000Z,285.34
2022-10-24T07:10:01.000Z,285.34
2022-10-24T07:11:27.000Z,285.4
2022-10-24T07:13:33.000Z,285.4
2022-10-24T07:15:00.000Z,285.46
2022-10-24T07:17:06.000Z,285.52
2022-10-24T07:19:57.000Z,285.59
2022-10-24T07:21:24.000Z,285.65
2022-10-24T07:23:30.000Z,285.59
2022-10-24T07:24:56.000Z,285.65
2022-10-24T07:27:02.000Z,285.77
2022-10-24T07:28:29.000Z,285.84
2022-10-24T07:30:35.000Z,285.9
2022-10-24T07:32:01.000Z,285.9
2022-10-24T07:34:08.000Z,285.96
2022-10-24T07:35:34.000Z,286.02
2022-10-24T07:37:40.000Z,286.02
2022-10-24T07:39:07.000Z,286.02
2022-10-24T07:41:13.000Z,286.02
2022-10-24T07:42:40.000Z,286.09
2022-10-24T07:44:46.000Z,286.02
2022-10-24T07:46:12.000Z,286.09
2022-10-24T07:48:19.000Z,286.09
2022-10-24T07:49:45.000Z,286.15
2022-10-24T07:51:51.000Z,286.21
2022-10-24T07:53:18.000Z,286.21
2022-10-24T07:55:24.000Z,286.21
2022-10-24T07:58:15.000Z,286.34
2022-10-24T07:59:41.000Z,286.34
2022-10-24T08:01:48.000Z,286.4
2022-10-24T08:03:14.000Z,286.4
2022-10-24T08:05:20.000Z,286.4
2022-10-24T08:06:47.000Z,286.4
2022-10-24T08:08:53.000Z,286.46
2022-10-24T08:10:20.000Z,286.52
2022-10-24T08:12:26.000Z,286.52
2022-10-24T08:13:53.000Z,286.52
2022-10-24T08:15:59.000Z,286.59
2022-10-24T08:17:25.000Z,286.65
2022-10-24T08:19:31.000Z,286.65
2022-10-24T08:20:58.000Z,286.65
2022-10-24T08:23:04.000Z,286.71
2022-10-24T08:24:31.000Z,286.77
2022-10-24T08:26:37.000Z,286.77
2022-10-24T08:28:03.000Z,286.84
2022-10-24T08:30:13.000Z,286.9
2022-10-24T08:31:39.000Z,286.96
2022-10-24T08:33:45.000Z,286.96
2022-10-24T08:36:37.000Z,286.96
2022-10-24T08:38:03.000Z,287.02
2022-10-24T08:40:09.000Z,287.02
2022-10-24T08:41:36.000Z,287.02
2022-10-24T08:43:42.000Z,287.09
2022-10-24T08:45:08.000Z,287.15
2022-10-24T08:47:15.000Z,287.09
2022-10-24T08:48:41.000Z,287.09
2022-10-24T08:50:47.000Z,287.09
2022-10-24T08:52:14.000Z,287.15
2022-10-24T08:54:20.000Z,287.15
2022-10-24T08:55:46.000Z,287.15
2022-10-24T08:57:54.000Z,287.21
2022-10-24T08:59:20.000Z,287.21
2022-10-24T09:01:27.000Z,287.21
2022-10-24T09:02:53.000Z,287.27
2022-10-24T09:05:00.000Z,287.27
2022-10-24T09:06:26.000Z,287.27
2022-10-24T09:08:32.000Z,287.27
2022-10-24T09:09:59.000Z,287.34
2022-10-24T09:12:05.000Z,287.34
2022-10-24T09:14:56.000Z,287.46
2022-10-24T09:16:23.000Z,287.46
2022-10-24T09:18:29.000Z,287.46
2022-10-24T09:19:55.000Z,287.46
2022-10-24T09:22:01.000Z,287.52
2022-10-24T09:23:28.000Z,287.59
2022-10-24T09:25:34.000Z,287.59
2022-10-24T09:27:01.000Z,287.65
2022-10-24T09:29:07.000Z,287.71
2022-10-24T09:30:33.000Z,287.77
2022-10-24T09:32:39.000Z,287.77
2022-10-24T09:34:06.000Z,287.77
2022-10-24T09:36:12.000Z,287.84
2022-10-24T09:37:39.000Z,287.84
2022-10-24T09:39:50.000Z,287.9
2022-10-24T09:41:16.000Z,287.96
2022-10-24T09:43:22.000Z,287.96
2022-10-24T09:44:49.000Z,287.96
2022-10-24T09:46:55.000Z,287.96
2022-10-24T09:48:21.000Z,287.96
2022-10-24T09:50:34.000Z,287.96
2022-10-24T09:53:25.000Z,288.02
2022-10-24T09:54:52.000Z,288.09
2022-10-24T09:56:58.000Z,288.02
2022-10-24T09:58:24.000Z,288.09
2022-10-24T10:00:30.000Z,288.09
2022-10-24T10:01:57.000Z,288.09
2022-10-24T10:04:03.000Z,288.15
2022-10-24T10:05:35.000Z,288.27
2022-10-24T10:07:41.000Z,288.27
2022-10-24T10:09:08.000Z,288.46
2022-10-24T10:11:14.000Z,288.59
2022-10-24T10:12:40.000Z,288.71
2022-10-24T10:14:46.000Z,288.77
2022-10-24T10:16:13.000Z,288.77
2022-10-24T10:18:20.000Z,288.9
2022-10-24T10:19:46.000Z,289.02
2022-10-24T10:21:52.000Z,288.9
2022-10-24T10:23:19.000Z,288.96
2022-10-24T10:25:25.000Z,289.02
2022-10-24T10:26:52.000Z,289.09
2022-10-24T10:28:58.000Z,289.27
2022-10-24T10:31:49.000Z,289.4
2022-10-24T10:33:15.000Z,289.59
2022-10-24T10:35:21.000Z,289.65
2022-10-24T10:36:48.000Z,289.65
2022-10-24T10:38:54.000Z,289.59
2022-10-24T10:40:20.000Z,289.65
2022-10-24T10:42:26.000Z,289.71
2022-10-24T10:43:53.000Z,289.77
2022-10-24T10:45:59.000Z,289.84
2022-10-24T10:47:26.000Z,289.84
2022-10-24T10:49:32.000Z,289.77
2022-10-24T10:50:58.000Z,289.84
2022-10-24T10:53:09.000Z,289.96
2022-10-24T10:54:36.000Z,290.02
2022-10-24T10:56:42.000Z,290.02
2022-10-24T10:58:09.000Z,289.96
2022-10-24T11:00:17.000Z,290.27
2022-10-24T11:01:43.000Z,290.4
2022-10-24T11:03:50.000Z,290.34
2022-10-24T11:05:16.000Z,290.34
2022-10-24T11:07:22.000Z,290.52
2022-10-24T11:10:13.000Z,290.46
2022-10-24T11:11:40.000Z,290.46
2022-10-24T11:13:46.000Z,290.46
2022-10-24T11:15:13.000Z,290.52
2022-10-24T11:17:19.000Z,290.59
2022-10-24T11:18:45.000Z,290.59
2022-10-24T11:20:51.000Z,290.52
2022-10-24T11:22:18.000Z,290.46
2022-10-24T11:24:24.000Z,290.46
2022-10-24T11:25:50.000Z,290.27
2022-10-24T11:27:57.000Z,290.27
2022-10-24T11:29:23.000Z,290.34
2022-10-24T11:31:29.000Z,290.34
2022-10-24T11:32:56.000Z,290.4
2022-10-24T11:35:02.000Z,290.52
2022-10-24T11:36:28.000Z,290.71
2022-10-24T11:38:34.000Z,290.52
2022-10-24T11:40:01.000Z,290.59
2022-10-24T11:42:08.000Z,290.71
2022-10-24T11:43:34.000Z,290.77
2022-10-24T11:45:41.000Z,290.84
2022-10-24T11:48:32.000Z,290.9
2022-10-24T11:49:58.000Z,290.84
2022-10-24T11:52:04.000Z,290.9
2022-10-24T11:53:31.000Z,290.84
2022-10-24T11:55:37.000Z,290.84
2022-10-24T11:57:03.000Z,290.84
2022-10-24T11:59:10.000Z,290.84
2022-10-24T12:00:36.000Z,290.77
2022-10-24T12:02:42.000Z,290.65
2022-10-24T12:04:09.000Z,290.59
2022-10-24T12:06:15.000Z,290.59
2022-10-24T12:07:41.000Z,290.59
2022-10-24T12:09:48.000Z,290.46
2022-10-24T12:11:15.000Z,290.52
2022-10-24T12:13:21.000Z,290.46
2022-10-24T12:14:47.000Z,290.46
2022-10-24T12:16:53.000Z,290.59
2022-10-24T12:18:20.000Z,290.65
2022-10-24T12:20:26.000Z,290.71
2022-10-24T12:21:53.000Z,290.84
2022-10-24T12:23:59.000Z,290.84
2022-10-24T12:26:50.000Z,291.15
2022-10-24T12:28:16.000Z,291.09
2022-10-24T12:30:23.000Z,291.15
2022-10-24T12:31:49.000Z,291.21
2022-10-24T12:33:55.000Z,291.21
2022-10-24T12:35:22.000Z,291.21
2022-10-24T12:37:35.000Z,291.21
2022-10-24T12:39:02.000Z,291.21
2022-10-24T12:41:08.000Z,291.21
2022-10-24T12:42:34.000Z,291.27
2022-10-24T12:44:40.000Z,291.15
2022-10-24T12:46:07.000Z,291.09
2022-10-24T12:48:17.000Z,291.02
2022-10-24T12:49:43.000Z,291.02
2022-10-24T12:51:55.000Z,290.96
2022-10-24T12:53:21.000Z,290.96
2022-10-24T12:55:27.000Z,290.96
2022-10-24T12:56:54.000Z,290.96
2022-10-24T12:59:00.000Z,291.09
2022-10-24T13:00:27.000Z,291.09
2022-10-24T13:02:33.000Z,290.96
2022-10-24T13:05:24.000Z,290.9
2022-10-24T13:06:51.000Z,290.96
2022-10-24T13:08:57.000Z,290.96
2022-10-24T13:10:23.000Z,290.9
2022-10-24T13:12:29.000Z,290.9
2022-10-24T13:13:56.000Z,290.84
2022-10-24T13:16:02.000Z,290.96
2022-10-24T13:17:29.000Z,290.84
2022-10-24T13:19:35.000Z,290.71
2022-10-24T13:21:01.000Z,290.71
2022-10-24T13:23:07.000Z,290.59
2022-10-24T13:24:34.000Z,290.59
2022-10-24T13:26:40.000Z,290.59
2022-10-24T13:28:06.000Z,290.59
2022-10-24T13:30:12.000Z,290.52
2022-10-24T13:31:39.000Z,290.59
2022-10-24T13:33:45.000Z,290.59
2022-10-24T13:35:12.000Z,290.59
2022-10-24T13:37:18.000Z,290.59
2022-10-24T13:38:44.000Z,290.52
2022-10-24T13:40:50.000Z,290.52
2022-10-24T13:43:42.000Z,290.52
2022-10-24T13:45:08.000Z,290.65
2022-10-24T13:47:14.000Z,290.65
2022-10-24T13:48:41.000Z,290.71
2022-10-24T13:50:47.000Z,290.71
2022-10-24T13:52:13.000Z,290.71
2022-10-24T13:54:19.000Z,290.71
2022-10-24T13:55:46.000Z,290.65
2022-10-24T13:57:52.000Z,290.59
2022-10-24T13:59:18.000Z,290.59
2022-10-24T14:01:25.000Z,290.59
2022-10-24T14:02:51.000Z,290.65
2022-10-24T14:04:58.000Z,290.65
2022-10-24T14:06:24.000Z,290.71
2022-10-24T14:08:30.000Z,290.71
2022-10-24T14:09:57.000Z,290.71
2022-10-24T14:12:03.000Z,290.71
2022-10-24T14:13:29.000Z,290.71
2022-10-24T14:15:35.000Z,290.71
2022-10-24T14:17:02.000Z,290.65
2022-10-24T14:19:08.000Z,290.59
2022-10-24T14:22:05.000Z,290.52
2022-10-24T14:23:32.000Z,290.52
2022-10-24T14:25:38.000Z,290.46
2022-10-24T14:27:05.000Z,290.4
2022-10-24T14:29:11.000Z,290.4
2022-10-24T14:30:37.000Z,290.34
2022-10-24T14:32:43.000Z,290.27
2022-10-24T14:34:10.000Z,290.27
2022-10-24T14:36:16.000Z,290.34
2022-10-24T14:37:42.000Z,290.34
2022-10-24T14:39:49.000Z,290.34
2022-10-24T14:41:15.000Z,290.4
2022-10-24T14:43:21.000Z,290.4
2022-10-24T14:44:48.000Z,290.4
2022-10-24T14:46:57.000Z,290.34
2022-10-24T14:48:24.000Z,290.34
2022-10-24T14:50:30.000Z,290.27
2022-10-24T14:51:57.000Z,290.27
2022-10-24T14:54:03.000Z,290.27
2022-10-24T14:55:29.000Z,290.21
2022-10-24T14:57:35.000Z,290.09
2022-10-24T15:00:27.000Z,290.09
2022-10-24T15:01:53.000Z,290.09
2022-10-24T15:03:59.000Z,290.02
2022-10-24T15:05:26.000Z,289.96
2022-10-24T15:07:32.000Z,289.9
2022-10-24T15:08:58.000Z,289.84
2022-10-24T15:11:08.000Z,289.77
2022-10-24T15:12:35.000Z,289.77
2022-10-24T15:14:41.000Z,289.77
2022-10-24T15:16:07.000Z,289.71
2022-10-24T15:18:14.000Z,289.71
2022-10-24T15:19:40.000Z,289.71
2022-10-24T15:21:46.000Z,289.59
2022-10-24T15:23:13.000Z,289.59
2022-10-24T15:26:45.000Z,289.59
2022-10-24T15:28:51.000Z,289.52
2022-10-24T15:30:18.000Z,289.4
2022-10-24T15:32:24.000Z,289.4
2022-10-24T15:33:51.000Z,289.46
2022-10-24T15:35:57.000Z,289.34
2022-10-24T15:38:48.000Z,289.27
2022-10-24T15:40:15.000Z,289.21
2022-10-24T15:42:21.000Z,289.21
2022-10-24T15:43:47.000Z,289.15
2022-10-24T15:45:53.000Z,289.09
2022-10-24T15:47:20.000Z,289.15
2022-10-24T15:49:26.000Z,289.02
2022-10-24T15:50:52.000Z,289.02
2022-10-24T15:52:58.000Z,288.9
2022-10-24T15:54:25.000Z,288.84
2022-10-24T15:56:31.000Z,288.9
2022-10-24T15:57:57.000Z,288.84
2022-10-24T16:00:04.000Z,288.71
2022-10-24T16:01:30.000Z,288.65
2022-10-24T16:03:42.000Z,288.65
2022-10-24T16:05:09.000Z,288.65
2022-10-24T16:07:15.000Z,288.59
2022-10-24T16:08:41.000Z,288.59
2022-10-24T16:10:47.000Z,288.46
2022-10-24T16:12:14.000Z,288.46
2022-10-24T16:14:20.000Z,288.34
2022-10-24T16:17:11.000Z,288.34
2022-10-24T16:18:38.000Z,288.34
2022-10-24T16:20:44.000Z,288.27
2022-10-24T16:22:10.000Z,288.21
2022-10-24T16:24:17.000Z,288.15
2022-10-24T16:25:43.000Z,288.02
2022-10-24T16:27:49.000Z,288.02
2022-10-24T16:29:16.000Z,287.96
2022-10-24T16:31:22.000Z,287.9
2022-10-24T16:32:49.000Z,287.9
2022-10-24T16:34:55.000Z,287.84
2022-10-24T16:36:22.000Z,287.9
2022-10-24T16:38:29.000Z,287.84
2022-10-24T16:39:55.000Z,287.84
2022-10-24T16:42:01.000Z,287.84
2022-10-24T16:43:28.000Z,287.71
2022-10-24T16:45:34.000Z,287.71
2022-10-24T16:47:00.000Z,287.71
2022-10-24T16:49:06.000Z,287.71
2022-10-24T16:50:33.000Z,287.71
2022-10-24T16:52:39.000Z,287.77
2022-10-24T16:55:30.000Z,287.77
2022-10-24T16:56:57.000Z,287.77
2022-10-24T16:59:03.000Z,287.84
2022-10-24T17:00:29.000Z,287.84
2022-10-24T17:02:36.000Z,287.96
2022-10-24T17:04:02.000Z,287.96
2022-10-24T17:06:08.000Z,288.02
2022-10-24T17:07:35.000Z,288.09
2022-10-24T17:09:41.000Z,288.15
2022-10-24T17:11:08.000Z,288.15
2022-10-24T17:13:43.000Z,288.15
2022-10-24T17:15:10.000Z,288.21
2022-10-24T17:17:16.000Z,288.34
2022-10-24T17:18:42.000Z,288.4
2022-10-24T17:21:08.000Z,288.46
2022-10-24T17:22:35.000Z,288.34
2022-10-24T17:24:41.000Z,288.34
2022-10-24T17:26:08.000Z,288.34
2022-10-24T17:28:14.000Z,288.27
2022-10-24T17:29:40.000Z,288.27
2022-10-24T17:31:47.000Z,288.34
2022-10-24T17:34:38.000Z,288.34
2022-10-24T17:36:04.000Z,288.34
2022-10-24T17:38:10.000Z,288.34
2022-10-24T17:39:37.000Z,288.4
2022-10-24T17:41:48.000Z,288.4
2022-10-24T17:43:15.000Z,288.27
2022-10-24T17:45:21.000Z,288.27
2022-10-24T17:46:48.000Z,288.27
2022-10-24T17:49:01.000Z,288.21
2022-10-24T17:50:27.000Z,288.21
2022-10-24T17:52:34.000Z,288.21
2022-10-24T17:54:00.000Z,288.21
2022-10-24T17:56:06.000Z,288.27
2022-10-24T17:57:33.000Z,288.21
2022-10-24T17:59:39.000Z,288.15
2022-10-24T18:01:05.000Z,288.15
2022-10-24T18:03:12.000Z,288.09
2022-10-24T18:04:38.000Z,288.02
2022-10-24T18:06:44.000Z,288.02
2022-10-24T18:08:11.000Z,288.02
2022-10-24T18:10:17.000Z,288.02
2022-10-24T18:13:09.000Z,288.09
2022-10-24T18:14:35.000Z,288.21
2022-10-24T18:16:41.000Z,288.27
2022-10-24T18:18:08.000Z,288.34
2022-10-24T18:20:14.000Z,288.34
2022-10-24T18:21:40.000Z,288.34
2022-10-24T18:23:47.000Z,288.27
2022-10-24T18:25:13.000Z,288.27
2022-10-24T18:27:25.000Z,288.34
2022-10-24T18:28:52.000Z,288.27
2022-10-24T18:30:58.000Z,288.21
2022-10-24T18:32:25.000Z,288.27
2022-10-24T18:34:31.000Z,288.27
2022-10-24T18:35:57.000Z,288.27
2022-10-24T18:38:03.000Z,288.21
2022-10-24T18:39:30.000Z,288.27
2022-10-24T18:41:36.000Z,288.27
2022-10-24T18:43:02.000Z,288.21
2022-10-24T18:45:09.000Z,288.34
2022-10-24T18:46:36.000Z,288.27
2022-10-24T18:48:42.000Z,288.34
2022-10-24T18:51:33.000Z,288.27
2022-10-24T18:53:00.000Z,288.27
2022-10-24T18:55:06.000Z,288.34
2022-10-24T18:56:32.000Z,288.27
2022-10-24T18:58:39.000Z,288.27
2022-10-24T19:00:05.000Z,288.21
2022-10-24T19:02:11.000Z,288.34
2022-10-24T19:03:38.000Z,288.34
2022-10-24T19:05:44.000Z,288.21
2022-10-24T19:07:16.000Z,288.21
2022-10-24T19:09:22.000Z,288.15
2022-10-24T19:10:49.000Z,288.09
2022-10-24T19:12:55.000Z,287.96
2022-10-24T19:14:21.000Z,287.96
2022-10-24T19:16:27.000Z,288.02
2022-10-24T19:17:57.000Z,288.02
2022-10-24T19:20:03.000Z,287.96
2022-10-24T19:21:29.000Z,287.9
2022-10-24T19:23:35.000Z,287.9
2022-10-24T19:25:02.000Z,287.77
2022-10-24T19:27:08.000Z,287.71
2022-10-24T19:29:59.000Z,287.65
2022-10-24T19:31:25.000Z,287.65
2022-10-24T19:33:32.000Z,287.65
2022-10-24T19:34:58.000Z,287.65
2022-10-24T19:37:04.000Z,287.59
2022-10-24T19:38:31.000Z,287.59
2022-10-24T19:40:37.000Z,287.52
2022-10-24T19:42:03.000Z,287.52
2022-10-24T19:44:09.000Z,287.46
2022-10-24T19:45:36.000Z,287.46
2022-10-24T19:47:54.000Z,287.52
2022-10-24T19:49:21.000Z,287.65
2022-10-24T19:51:27.000Z,287.59
2022-10-24T19:52:53.000Z,287.65
2022-10-24T19:54:59.000Z,287.71
2022-10-24T19:56:26.000Z,287.65
2022-10-24T19:58:32.000Z,287.65
2022-10-24T19:59:59.000Z,287.65
2022-10-24T20:02:05.000Z,287.77
2022-10-24T20:03:31.000Z,287.71
2022-10-24T20:05:37.000Z,287.77
2022-10-24T20:08:29.000Z,287.77
2022-10-24T20:09:55.000Z,287.77
2022-10-24T20:12:01.000Z,287.77
2022-10-24T20:13:28.000Z,287.71
2022-10-24T20:15:34.000Z,287.65
2022-10-24T20:17:00.000Z,287.65
2022-10-24T20:19:07.000Z,287.71
2022-10-24T20:20:33.000Z,287.71
2022-10-24T20:22:39.000Z,287.65
2022-10-24T20:24:06.000Z,287.59
2022-10-24T20:26:12.000Z,287.59
2022-10-24T20:27:38.000Z,287.65
2022-10-24T20:29:45.000Z,287.59
2022-10-24T20:31:11.000Z,287.59
2022-10-24T20:33:17.000Z,287.65
2022-10-24T20:34:44.000Z,287.65
2022-10-24T20:36:50.000Z,287.59
2022-10-24T20:38:16.000Z,287.59
2022-10-24T20:40:22.000Z,287.65
2022-10-24T20:41:49.000Z,287.59
2022-10-24T20:43:58.000Z,287.59
2022-10-24T20:46:49.000Z,287.59
2022-10-24T20:48:16.000Z,287.65
2022-10-24T20:50:22.000Z,287.71
2022-10-24T20:51:48.000Z,287.65
2022-10-24T20:53:54.000Z,287.59
2022-10-24T20:55:21.000Z,287.59
2022-10-24T20:57:47.000Z,287.52
2022-10-24T20:59:13.000Z,287.46
2022-10-24T21:01:19.000Z,287.34
2022-10-24T21:02:46.000Z,287.27
2022-10-24T21:04:53.000Z,287.27
2022-10-24T21:06:19.000Z,287.15
2022-10-24T21:08:25.000Z,287.02
2022-10-24T21:09:52.000Z,287.02
2022-10-24T21:11:58.000Z,286.96
2022-10-24T21:13:24.000Z,286.9
2022-10-24T21:15:30.000Z,286.84
2022-10-24T21:16:57.000Z,286.84
2022-10-24T21:19:03.000Z,286.77
2022-10-24T21:20:30.000Z,286.71
2022-10-24T21:22:36.000Z,286.65
2022-10-24T21:25:27.000Z,286.46
2022-10-24T21:26:54.000Z,286.46
2022-10-24T21:29:00.000Z,286.52
2022-10-24T21:30:45.000Z,286.52
2022-10-24T21:32:51.000Z,286.4
2022-10-24T21:34:17.000Z,286.4
2022-10-24T21:36:23.000Z,286.4
2022-10-24T21:37:50.000Z,286.4
2022-10-24T21:39:56.000Z,286.4
2022-10-24T21:41:23.000Z,286.34
2022-10-24T21:43:29.000Z,286.34
2022-10-24T21:44:55.000Z,286.34
2022-10-24T21:47:01.000Z,286.34
2022-10-24T21:48:28.000Z,286.46
2022-10-24T21:50:34.000Z,286.46
2022-10-24T21:52:01.000Z,286.46
2022-10-24T21:54:07.000Z,286.46
2022-10-24T21:55:33.000Z,286.46
2022-10-24T21:57:39.000Z,286.4
2022-10-24T21:59:06.000Z,286.4
2022-10-24T22:01:12.000Z,286.4
2022-10-24T22:04:03.000Z,286.46
2022-10-24T22:05:30.000Z,286.46
2022-10-24T22:07:36.000Z,286.46
2022-10-24T22:09:02.000Z,286.4
2022-10-24T22:11:08.000Z,286.4
2022-10-24T22:12:35.000Z,286.4
2022-10-24T22:14:41.000Z,286.52
2022-10-24T22:16:08.000Z,286.52
2022-10-24T22:18:14.000Z,286.59
2022-10-24T22:19:40.000Z,286.65
2022-10-24T22:21:46.000Z,286.59
2022-10-24T22:23:13.000Z,286.65
2022-10-24T22:25:19.000Z,286.65
2022-10-24T22:26:46.000Z,286.65
2022-10-24T22:28:52.000Z,286.59
2022-10-24T22:30:18.000Z,286.59
2022-10-24T22:33:51.000Z,286.65
2022-10-24T22:35:57.000Z,286.59
2022-10-24T22:37:24.000Z,286.59
2022-10-24T22:39:30.000Z,286.59
2022-10-24T22:42:21.000Z,286.65
2022-10-24T22:43:47.000Z,286.71
2022-10-24T22:45:53.000Z,286.77
2022-10-24T22:47:20.000Z,286.77
2022-10-24T22:49:26.000Z,286.65
2022-10-24T22:50:53.000Z,286.65
2022-10-24T22:52:59.000Z,286.59
2022-10-24T22:54:25.000Z,286.65
2022-10-24T22:56:31.000Z,286.52
2022-10-24T22:57:58.000Z,286.59